Search for airport 
image banner adimage banner adimage banner ad
image banner ad

2VA - Zangger Vintage Airpark

Located in Larchwood, United States

ICAO - 2VA, IATA -

Data provided by Airmate  

General information

Coordinates: N43°26'59" W96°24'9"
Elevation is 1476 feet MSL.
Magnetic variation is 06° East
View others Airports in Iowa

Operational data

Special qualification required
Current time UTC:
Current local time:
Weather at : KLYV - Quentin Aanenson Field ( 24 km )
METAR: KLYV 181755Z AUTO 00000KT 10SM CLR 29/06 A2990 RMK AO2
View NOTAMs / SUP AIP / TFR affecting this airport [VIEW]
Communications frequencies: [VIEW]

Runways:

RWY identifierQFULength (ft)Width (ft)SurfaceLDA (ft)
12128°2000100GRASS
30308°2000100GRASS

Airport contact information

Address: Larchwood United States

Satellite view of 2VA